Time;durP1;ratioP1;P1;durP2;ratioP2;P2;SDS_P1;SDS_P2;PMS_P1;PMS_P2;Temp;Humidity;BMP_temperature;BMP_pressure;BME280_temperature;BME280_humidity;BME280_pressure;Samples;Min_cycle;Max_cycle;Signal;HPM_P1;HPM_P2
2023/03/17 00:01:15;;;;;;;3.13;2.17;;;7.10;98.00;;;;;;5053505;28;20553;-72
2023/03/17 00:03:45;;;;;;;7.47;2.87;;;7.10;98.00;;;;;;5036042;28;20982;-71
2023/03/17 00:06:16;;;;;;;3.90;2.30;;;7.20;98.00;;;;;;5053290;28;20469;-71
2023/03/17 00:08:45;;;;;;;3.80;2.20;;;7.20;98.00;;;;;;5053499;28;20459;-70
2023/03/17 00:11:13;;;;;;;2.30;1.60;;;7.20;98.00;;;;;;5053076;28;20523;-69
2023/03/17 00:13:42;;;;;;;3.00;1.83;;;7.20;98.00;;;;;;5053732;28;20459;-70
2023/03/17 00:16:16;;;;;;;5.23;2.30;;;7.20;98.00;;;;;;5053432;28;20986;-69
2023/03/17 00:18:44;;;;;;;3.67;2.10;;;7.30;98.00;;;;;;5053357;28;20569;-71
2023/03/17 00:21:13;;;;;;;3.83;2.10;;;7.20;98.00;;;;;;5053341;28;20459;-70
2023/03/17 00:23:41;;;;;;;3.90;2.23;;;7.20;98.00;;;;;;5035722;28;20463;-71
2023/03/17 00:26:09;;;;;;;6.40;2.50;;;7.20;98.00;;;;;;5052983;28;20457;-71
2023/03/17 00:28:37;;;;;;;4.47;2.30;;;7.20;98.00;;;;;;5035131;28;20456;-71
2023/03/17 00:31:14;;;;;;;3.63;2.23;;;7.20;98.00;;;;;;5051947;28;20451;-70
2023/03/17 00:33:41;;;;;;;5.27;2.87;;;7.20;98.00;;;;;;5052463;28;20461;-70
2023/03/17 00:36:13;;;;;;;6.80;2.50;;;7.20;98.00;;;;;;5052961;28;20476;-69
2023/03/17 00:38:40;;;;;;;5.00;2.50;;;7.30;98.00;;;;;;5052860;28;20933;-72
2023/03/17 00:41:08;;;;;;;4.30;2.23;;;7.40;98.00;;;;;;5052774;28;20460;-70
2023/03/17 00:43:36;;;;;;;3.43;2.30;;;7.30;98.00;;;;;;5052820;28;20492;-71
2023/03/17 00:46:09;;;;;;;3.53;2.07;;;7.30;98.00;;;;;;5052321;28;20468;-71
2023/03/17 00:48:38;;;;;;;3.10;1.80;;;7.30;98.00;;;;;;5052682;28;20456;-69
2023/03/17 00:51:06;;;;;;;2.10;1.77;;;7.30;98.00;;;;;;5034886;28;20794;-69
2023/03/17 00:53:33;;;;;;;2.40;1.90;;;7.30;98.00;;;;;;5052782;28;20830;-71
2023/03/17 00:56:01;;;;;;;2.87;1.90;;;7.30;98.00;;;;;;5034912;28;20526;-72
2023/03/17 00:58:31;;;;;;;4.23;2.67;;;7.40;98.00;;;;;;5052483;28;20899;-69
2023/03/17 01:00:59;;;;;;;6.10;2.07;;;7.40;98.00;;;;;;5051862;28;20558;-72
2023/03/17 01:03:27;;;;;;;4.20;2.40;;;7.40;98.00;;;;;;5052507;28;20455;-71
2023/03/17 01:05:56;;;;;;;4.57;2.20;;;7.40;98.00;;;;;;5052466;28;20943;-71
2023/03/17 01:08:25;;;;;;;2.17;1.83;;;7.40;98.00;;;;;;5052450;28;20959;-70
2023/03/17 01:10:53;;;;;;;4.80;2.40;;;7.40;98.00;;;;;;5051916;28;20491;-70
2023/03/17 01:13:20;;;;;;;2.37;1.50;;;7.40;98.00;;;;;;5052554;28;20457;-71
2023/03/17 01:15:51;;;;;;;3.97;2.33;;;7.40;98.00;;;;;;5052280;28;20457;-71
2023/03/17 01:18:21;;;;;;;5.30;2.37;;;7.40;98.00;;;;;;5052156;28;21055;-70
2023/03/17 01:20:49;;;;;;;5.63;2.40;;;7.30;98.00;;;;;;5051943;28;20465;-72
2023/03/17 01:23:18;;;;;;;4.90;2.30;;;7.20;98.00;;;;;;5052071;28;20479;-71
2023/03/17 01:25:45;;;;;;;4.33;2.10;;;7.20;98.00;;;;;;5051893;28;20464;-69
2023/03/17 01:28:15;;;;;;;3.57;2.37;;;7.20;98.00;;;;;;5051992;28;20463;-69
2023/03/17 01:30:42;;;;;;;3.50;2.27;;;7.10;98.00;;;;;;5051700;28;20825;-70
2023/03/17 01:33:11;;;;;;;4.37;2.03;;;7.10;98.00;;;;;;5052133;28;20468;-72
2023/03/17 01:35:40;;;;;;;4.80;2.20;;;7.20;98.00;;;;;;5051558;28;20500;-71
2023/03/17 01:38:08;;;;;;;3.70;1.77;;;7.20;98.00;;;;;;5034360;28;20485;-70
2023/03/17 01:40:42;;;;;;;4.47;2.57;;;7.30;98.00;;;;;;5051260;28;21049;-70
2023/03/17 01:43:19;;;;;;;4.20;1.97;;;7.30;98.00;;;;;;5051858;28;20483;-71
2023/03/17 01:46:19;;;;;;;3.20;2.03;;;7.10;98.00;;;;;;5051490;28;20459;-70
2023/03/17 01:48:51;;;;;;;2.00;1.63;;;6.90;98.00;;;;;;5028512;28;20536;-69
2023/03/17 01:51:24;;;;;;;2.40;1.90;;;6.80;98.00;;;;;;5051586;28;20496;-69
2023/03/17 01:53:53;;;;;;;6.70;2.23;;;6.80;98.00;;;;;;5051399;28;20472;-71
2023/03/17 01:56:22;;;;;;;2.50;1.90;;;6.80;98.00;;;;;;5051311;28;20457;-69
2023/03/17 01:58:53;;;;;;;4.00;2.03;;;6.70;98.00;;;;;;5051275;28;20519;-70
2023/03/17 02:01:26;;;;;;;3.70;1.97;;;6.60;98.00;;;;;;5051561;28;20456;-71
2023/03/17 02:03:54;;;;;;;2.97;2.20;;;6.70;98.00;;;;;;5051288;28;20468;-71
2023/03/17 02:06:21;;;;;;;1.90;1.63;;;6.70;98.00;;;;;;5051356;28;20479;-71
2023/03/17 02:08:48;;;;;;;2.23;1.70;;;6.80;98.00;;;;;;5050444;28;20461;-71
2023/03/17 02:11:16;;;;;;;2.30;1.90;;;6.90;98.00;;;;;;5051343;28;20461;-71
2023/03/17 02:13:44;;;;;;;3.63;1.93;;;6.80;98.00;;;;;;5032981;28;20458;-70
2023/03/17 02:16:16;;;;;;;3.93;2.40;;;6.90;98.00;;;;;;5050896;28;20455;-69
2023/03/17 02:18:43;;;;;;;3.03;1.63;;;6.90;98.00;;;;;;5051174;28;20497;-70
2023/03/17 02:21:38;;;;;;;3.30;2.17;;;6.80;98.00;;;;;;5050624;28;20550;-70
2023/03/17 02:24:11;;;;;;;2.00;1.73;;;6.90;98.00;;;;;;5051108;28;20551;-70
2023/03/17 02:26:39;;;;;;;2.20;2.00;;;6.70;98.00;;;;;;5050917;28;20475;-69
2023/03/17 02:29:06;;;;;;;3.63;2.17;;;6.70;98.00;;;;;;5050917;28;20463;-69
2023/03/17 02:31:34;;;;;;;4.40;2.57;;;6.50;98.00;;;;;;5050918;28;20557;-70
2023/03/17 02:34:01;;;;;;;2.77;1.77;;;6.40;98.00;;;;;;5050821;28;20447;-70
2023/03/17 02:36:37;;;;;;;3.53;2.07;;;6.60;98.00;;;;;;5032798;28;20497;-70
2023/03/17 02:39:05;;;;;;;2.70;1.70;;;6.60;98.00;;;;;;5051058;28;20565;-69
2023/03/17 02:41:33;;;;;;;3.73;2.33;;;6.40;98.00;;;;;;5050820;28;20452;-71
2023/03/17 02:44:00;;;;;;;3.87;2.30;;;6.40;98.00;;;;;;5033272;28;20459;-71
2023/03/17 02:46:27;;;;;;;4.60;2.10;;;6.50;98.00;;;;;;5050878;28;20460;-69
2023/03/17 02:48:56;;;;;;;3.00;2.13;;;6.60;98.00;;;;;;5050680;28;20600;-71
2023/03/17 02:51:23;;;;;;;4.43;2.30;;;6.60;98.00;;;;;;5031907;28;20489;-70
2023/03/17 02:53:52;;;;;;;2.60;1.90;;;6.40;98.00;;;;;;5053193;28;20484;-71
2023/03/17 02:56:20;;;;;;;2.67;2.00;;;6.30;98.00;;;;;;5054607;28;20991;-71
2023/03/17 02:58:47;;;;;;;3.97;1.83;;;6.20;98.00;;;;;;5054574;28;20483;-70
2023/03/17 03:01:25;;;;;;;9.27;2.03;;;6.10;98.00;;;;;;5054628;28;20452;-70
2023/03/17 03:03:53;;;;;;;2.30;1.80;;;6.10;98.00;;;;;;5054500;28;20862;-70
2023/03/17 03:06:20;;;;;;;4.20;2.13;;;6.00;98.00;;;;;;5054574;28;20459;-71
2023/03/17 03:08:47;;;;;;;4.87;2.07;;;5.90;98.00;;;;;;5054729;28;20455;-71
2023/03/17 03:11:15;;;;;;;5.30;2.80;;;5.90;98.00;;;;;;5054630;28;20484;-70
2023/03/17 03:13:42;;;;;;;3.47;2.07;;;5.60;98.00;;;;;;5036969;28;20519;-71
2023/03/17 03:16:09;;;;;;;4.87;2.70;;;5.50;98.00;;;;;;5054441;28;20956;-71
2023/03/17 03:18:37;;;;;;;5.10;2.07;;;5.50;98.00;;;;;;5036309;28;20528;-69
2023/03/17 03:21:06;;;;;;;2.80;1.87;;;5.60;98.00;;;;;;5054285;28;20494;-69
2023/03/17 03:23:33;;;;;;;2.60;1.63;;;5.70;98.00;;;;;;5054383;28;20459;-70
2023/03/17 03:26:02;;;;;;;5.50;2.07;;;5.70;98.00;;;;;;5054101;28;20459;-69
2023/03/17 03:28:31;;;;;;;4.40;2.20;;;5.80;98.00;;;;;;5055077;28;20491;-69
2023/03/17 03:30:58;;;;;;;3.10;1.80;;;5.90;98.00;;;;;;5054117;28;20459;-70
2023/03/17 03:33:25;;;;;;;1.83;1.50;;;6.00;98.00;;;;;;5054916;28;20486;-70
2023/03/17 03:35:52;;;;;;;2.70;1.83;;;6.10;98.00;;;;;;5036300;28;20455;-71
2023/03/17 03:38:20;;;;;;;2.37;1.60;;;6.00;98.00;;;;;;5054040;28;20485;-71
2023/03/17 03:40:48;;;;;;;1.70;1.47;;;5.90;98.00;;;;;;5036277;28;20460;-71
2023/03/17 03:43:15;;;;;;;2.80;1.70;;;5.60;98.00;;;;;;5054271;28;20868;-70
2023/03/17 03:45:45;;;;;;;1.83;1.30;;;5.50;98.00;;;;;;5053848;28;20823;-70
2023/03/17 03:48:12;;;;;;;3.67;2.10;;;5.40;98.00;;;;;;5054278;28;20463;-70
2023/03/17 03:50:39;;;;;;;4.20;2.40;;;5.40;98.00;;;;;;5053652;28;20468;-71
2023/03/17 03:53:07;;;;;;;3.60;1.77;;;5.40;98.00;;;;;;5053711;28;20857;-71
2023/03/17 03:55:34;;;;;;;2.07;1.83;;;5.50;98.00;;;;;;5053968;28;20454;-71
2023/03/17 03:58:01;;;;;;;2.47;2.00;;;5.50;98.00;;;;;;5053599;28;20497;-70
2023/03/17 04:00:29;;;;;;;2.50;1.67;;;5.50;98.00;;;;;;5035869;28;20857;-71
2023/03/17 04:02:58;;;;;;;2.33;1.40;;;5.50;98.00;;;;;;5053597;28;20877;-69
2023/03/17 04:05:25;;;;;;;4.87;2.37;;;5.40;98.00;;;;;;5053390;28;20982;-71
2023/03/17 04:07:52;;;;;;;3.40;1.90;;;5.30;98.00;;;;;;5053487;28;20460;-70
2023/03/17 04:10:20;;;;;;;4.90;1.70;;;5.30;98.00;;;;;;5036180;28;20459;-70
2023/03/17 04:12:47;;;;;;;2.57;1.83;;;5.10;98.00;;;;;;5053685;28;20454;-71
2023/03/17 04:15:19;;;;;;;3.17;2.30;;;5.00;98.00;;;;;;5053522;28;20458;-69
2023/03/17 04:17:47;;;;;;;1.70;1.40;;;5.00;98.00;;;;;;5053744;28;20470;-69
2023/03/17 04:20:16;;;;;;;2.40;1.40;;;5.00;98.00;;;;;;5053130;28;20539;-71
2023/03/17 04:22:46;;;;;;;3.33;1.93;;;5.00;98.00;;;;;;5053091;28;20891;-71
2023/03/17 04:25:15;;;;;;;5.17;1.53;;;4.80;98.00;;;;;;5053189;28;21036;-70
2023/03/17 04:27:44;;;;;;;3.43;1.80;;;4.70;98.00;;;;;;5035391;28;20975;-70
2023/03/17 04:30:13;;;;;;;1.70;1.60;;;4.60;98.00;;;;;;5053036;28;20461;-70
2023/03/17 04:32:43;;;;;;;2.47;1.90;;;4.70;98.00;;;;;;5052997;28;20461;-70
2023/03/17 04:35:15;;;;;;;2.70;1.97;;;4.60;98.00;;;;;;5052806;28;20460;-70
2023/03/17 04:37:43;;;;;;;2.27;1.70;;;4.40;98.00;;;;;;5035734;28;20830;-69
2023/03/17 04:40:12;;;;;;;2.03;1.57;;;4.40;98.00;;;;;;5052782;28;20537;-71
2023/03/17 04:42:39;;;;;;;1.40;1.20;;;4.40;98.00;;;;;;5052663;28;20471;-69
2023/03/17 04:45:10;;;;;;;2.13;1.63;;;4.30;98.00;;;;;;5034876;28;20497;-71
2023/03/17 04:47:38;;;;;;;2.77;2.03;;;4.30;98.00;;;;;;5052630;28;20512;-70
2023/03/17 04:50:06;;;;;;;4.53;1.70;;;4.20;98.00;;;;;;5052248;28;21068;-69
2023/03/17 04:52:35;;;;;;;2.80;1.50;;;4.10;98.00;;;;;;5052477;28;20500;-71
2023/03/17 04:55:03;;;;;;;5.90;2.20;;;4.20;98.00;;;;;;5052235;28;20549;-68
2023/03/17 04:57:30;;;;;;;2.50;1.40;;;4.30;98.00;;;;;;5052565;28;20895;-69
2023/03/17 04:59:57;;;;;;;2.93;1.77;;;4.40;98.00;;;;;;5052109;28;21004;-69
2023/03/17 05:02:25;;;;;;;2.50;1.57;;;4.30;98.00;;;;;;5052639;28;20895;-70
2023/03/17 05:04:52;;;;;;;2.70;1.50;;;4.40;98.00;;;;;;5052355;28;20545;-69
2023/03/17 05:07:19;;;;;;;2.00;1.67;;;4.40;98.00;;;;;;5052510;28;20506;-70
2023/03/17 05:09:48;;;;;;;2.20;1.63;;;4.40;98.00;;;;;;5034929;28;20465;-69
2023/03/17 05:12:15;;;;;;;2.67;2.10;;;4.40;98.00;;;;;;5052252;28;20544;-70
2023/03/17 05:14:42;;;;;;;1.90;1.50;;;4.20;98.00;;;;;;5034436;28;20854;-70
2023/03/17 05:17:09;;;;;;;2.00;1.70;;;4.10;98.00;;;;;;5051488;28;20469;-70
2023/03/17 05:19:37;;;;;;;1.90;1.80;;;4.00;98.00;;;;;;5034398;28;20543;-71
2023/03/17 05:22:04;;;;;;;3.30;2.33;;;4.10;98.00;;;;;;5034279;28;20460;-70
2023/03/17 05:24:31;;;;;;;4.13;2.17;;;4.10;98.00;;;;;;5051907;28;20468;-70
2023/03/17 05:26:59;;;;;;;3.23;2.63;;;4.00;98.00;;;;;;5051627;28;20455;-71
2023/03/17 05:29:27;;;;;;;1.63;1.63;;;4.00;98.00;;;;;;5051725;28;20465;-69
2023/03/17 05:31:55;;;;;;;4.57;1.83;;;3.90;98.00;;;;;;5034206;28;20875;-68
2023/03/17 05:34:22;;;;;;;3.90;1.60;;;3.90;98.00;;;;;;5017734;28;20468;-70
2023/03/17 05:36:49;;;;;;;2.53;2.07;;;3.80;98.00;;;;;;5051630;28;20458;-70
2023/03/17 05:39:16;;;;;;;1.80;1.60;;;3.90;98.00;;;;;;5051500;28;20523;-70
2023/03/17 05:41:43;;;;;;;4.70;2.00;;;4.00;98.00;;;;;;5051521;28;20541;-71
2023/03/17 05:44:12;;;;;;;3.60;2.10;;;3.90;98.00;;;;;;5051483;28;20465;-68
2023/03/17 05:46:40;;;;;;;2.27;2.07;;;3.90;98.00;;;;;;5051425;28;20461;-68
2023/03/17 05:49:07;;;;;;;1.83;1.20;;;3.90;98.00;;;;;;5051418;28;20466;-70
2023/03/17 05:51:34;;;;;;;2.03;1.70;;;4.00;98.00;;;;;;5051237;28;20550;-70
2023/03/17 05:54:01;;;;;;;1.73;1.37;;;3.90;98.00;;;;;;5050989;28;20471;-70
2023/03/17 05:56:32;;;;;;;1.60;1.50;;;4.00;98.00;;;;;;5051271;28;20462;-70
2023/03/17 05:59:01;;;;;;;2.17;1.60;;;4.00;98.00;;;;;;5051056;28;20482;-71
2023/03/17 06:01:32;;;;;;;3.97;2.00;;;4.00;98.00;;;;;;5051417;28;20815;-71
2023/03/17 06:04:00;;;;;;;4.30;2.30;;;4.00;98.00;;;;;;5051136;28;20466;-71
2023/03/17 06:06:27;;;;;;;2.23;1.83;;;3.90;98.00;;;;;;5051244;28;21034;-71
2023/03/17 06:08:54;;;;;;;2.60;1.90;;;3.90;98.00;;;;;;5051447;28;20460;-70
2023/03/17 06:11:22;;;;;;;3.00;1.80;;;4.00;98.00;;;;;;5051317;28;20459;-71
2023/03/17 06:13:49;;;;;;;2.70;1.57;;;4.00;98.00;;;;;;5033717;28;20454;-70
2023/03/17 06:16:16;;;;;;;1.43;1.37;;;4.10;98.00;;;;;;5051288;28;20469;-70
2023/03/17 06:18:45;;;;;;;3.03;2.00;;;4.20;98.00;;;;;;5051148;28;20465;-71
2023/03/17 06:21:12;;;;;;;2.13;1.80;;;4.30;98.00;;;;;;5050787;28;20581;-69
2023/03/17 06:23:39;;;;;;;4.30;2.13;;;4.20;98.00;;;;;;5051061;28;20812;-70
2023/03/17 06:26:06;;;;;;;3.83;2.10;;;4.40;98.00;;;;;;5051053;28;20460;-71
2023/03/17 06:28:34;;;;;;;2.60;1.90;;;4.40;98.00;;;;;;5050097;28;20502;-71
2023/03/17 06:31:01;;;;;;;4.60;1.87;;;4.30;98.00;;;;;;5051051;28;20757;-69
2023/03/17 06:33:28;;;;;;;2.47;1.87;;;4.40;98.00;;;;;;5050948;28;20480;-69
2023/03/17 06:35:57;;;;;;;2.03;1.90;;;4.50;98.00;;;;;;5050690;28;20945;-69
2023/03/17 06:38:24;;;;;;;2.73;2.00;;;4.60;98.00;;;;;;5050842;28;20466;-70
2023/03/17 06:40:51;;;;;;;4.07;2.33;;;4.80;98.00;;;;;;5033170;28;20527;-69
2023/03/17 06:43:21;;;;;;;5.27;2.30;;;4.90;98.00;;;;;;5032813;28;20865;-71
2023/03/17 06:45:48;;;;;;;1.73;1.63;;;4.90;98.00;;;;;;5050252;28;20458;-70
2023/03/17 06:48:16;;;;;;;2.70;1.53;;;4.90;98.00;;;;;;5050849;28;20957;-69
2023/03/17 06:50:46;;;;;;;2.93;2.00;;;4.90;98.00;;;;;;5050979;28;20447;-71
2023/03/17 06:53:14;;;;;;;2.97;1.47;;;5.00;98.00;;;;;;5050832;28;20568;-70
2023/03/17 06:55:44;;;;;;;3.20;1.70;;;5.00;98.00;;;;;;5050685;28;20490;-71
2023/03/17 06:58:12;;;;;;;5.80;2.60;;;5.00;98.00;;;;;;5050950;28;20470;-69
2023/03/17 07:00:39;;;;;;;3.20;2.23;;;5.00;98.00;;;;;;5050573;28;20487;-67
2023/03/17 07:03:08;;;;;;;2.90;2.10;;;5.10;98.00;;;;;;5050907;28;20555;-65
2023/03/17 07:05:36;;;;;;;4.30;2.23;;;5.10;98.00;;;;;;5051076;28;20489;-65
2023/03/17 07:08:04;;;;;;;1.87;1.60;;;5.30;98.00;;;;;;5050982;28;20538;-65
2023/03/17 07:10:32;;;;;;;3.10;2.37;;;5.40;98.00;;;;;;5050844;28;20462;-66
2023/03/17 07:13:02;;;;;;;2.40;1.60;;;5.50;98.00;;;;;;5050237;28;20959;-66
2023/03/17 07:15:33;;;;;;;3.40;2.00;;;5.60;98.00;;;;;;5033374;28;20914;-67
2023/03/17 07:18:00;;;;;;;2.83;2.17;;;5.70;98.00;;;;;;5050699;28;20993;-64
2023/03/17 07:20:28;;;;;;;2.83;1.93;;;5.80;98.00;;;;;;5050762;28;20497;-67
2023/03/17 07:22:55;;;;;;;3.50;2.30;;;5.90;98.00;;;;;;5050836;28;20455;-65
2023/03/17 07:25:22;;;;;;;2.17;1.77;;;6.00;98.00;;;;;;5050637;28;20455;-65
2023/03/17 07:27:51;;;;;;;3.60;2.27;;;6.20;98.00;;;;;;5050674;28;20817;-65
2023/03/17 07:30:19;;;;;;;5.10;2.43;;;6.40;98.00;;;;;;5050635;28;20494;-65
2023/03/17 07:32:46;;;;;;;6.63;2.80;;;6.70;98.00;;;;;;5050458;28;20455;-68
2023/03/17 07:35:19;;;;;;;6.80;2.87;;;6.90;98.00;;;;;;5050573;28;20459;-67
2023/03/17 07:37:47;;;;;;;4.20;2.97;;;7.00;98.00;;;;;;5015988;28;20459;-65
2023/03/17 07:40:17;;;;;;;6.47;2.60;;;7.00;98.00;;;;;;5053169;28;20537;-67
2023/03/17 07:42:45;;;;;;;4.73;2.60;;;7.00;98.00;;;;;;5054125;28;20486;-66
2023/03/17 07:45:13;;;;;;;16.17;2.83;;;7.10;98.00;;;;;;5054054;28;20564;-66
2023/03/17 07:47:41;;;;;;;6.53;3.07;;;7.20;98.00;;;;;;5054050;28;20476;-66
2023/03/17 07:50:09;;;;;;;5.37;2.97;;;7.30;98.00;;;;;;5053921;28;20461;-68
2023/03/17 07:52:36;;;;;;;7.97;3.13;;;7.40;98.00;;;;;;5053905;28;20464;-66
2023/03/17 07:55:07;;;;;;;4.07;2.03;;;7.50;98.00;;;;;;5053586;28;20468;-66
2023/03/17 07:57:34;;;;;;;4.90;2.70;;;7.70;98.00;;;;;;5053670;28;20457;-67
2023/03/17 08:00:01;;;;;;;4.40;2.37;;;7.90;98.00;;;;;;5049430;28;20504;-67
2023/03/17 08:02:30;;;;;;;3.90;2.67;;;8.00;98.00;;;;;;5051453;28;20464;-64
2023/03/17 08:04:57;;;;;;;3.43;2.70;;;8.10;98.00;;;;;;5053693;28;20807;-66
2023/03/17 08:07:25;;;;;;;6.13;3.23;;;8.30;98.00;;;;;;5053414;28;20463;-67
2023/03/17 08:09:52;;;;;;;5.40;2.80;;;8.30;98.00;;;;;;5035906;28;20449;-65
2023/03/17 08:12:20;;;;;;;5.57;2.77;;;8.50;98.00;;;;;;5035343;28;21013;-65
2023/03/17 08:14:47;;;;;;;7.80;3.47;;;8.60;98.00;;;;;;5052421;28;20454;-64
2023/03/17 08:17:15;;;;;;;5.13;3.10;;;8.70;98.00;;;;;;5053183;28;20651;-66
2023/03/17 08:19:44;;;;;;;4.00;2.50;;;8.90;98.00;;;;;;5053171;28;20456;-67
2023/03/17 08:22:11;;;;;;;6.40;2.87;;;8.90;98.00;;;;;;5053717;28;20513;-66
2023/03/17 08:24:41;;;;;;;7.77;3.30;;;9.40;98.00;;;;;;5053003;28;20462;-65
2023/03/17 08:27:09;;;;;;;5.70;3.10;;;9.60;98.00;;;;;;5018847;28;20449;-65
2023/03/17 08:29:37;;;;;;;8.00;3.30;;;9.80;98.00;;;;;;5053032;28;20494;-64
2023/03/17 08:32:04;;;;;;;7.10;2.70;;;9.90;98.00;;;;;;5052825;28;20816;-66
2023/03/17 08:34:31;;;;;;;7.63;3.63;;;10.00;98.00;;;;;;5035359;28;20815;-64
2023/03/17 08:37:00;;;;;;;3.97;2.47;;;10.10;98.00;;;;;;5052793;28;20464;-64
2023/03/17 08:39:28;;;;;;;4.60;2.57;;;10.30;98.00;;;;;;5034710;28;20510;-65
2023/03/17 08:41:56;;;;;;;6.27;3.20;;;10.40;98.00;;;;;;5052563;28;20511;-65
2023/03/17 08:44:23;;;;;;;6.13;3.27;;;10.40;98.00;;;;;;5039710;28;20451;-65
2023/03/17 08:46:51;;;;;;;4.60;3.00;;;10.60;98.00;;;;;;5032414;28;20949;-65
2023/03/17 08:49:18;;;;;;;7.83;3.47;;;10.60;98.00;;;;;;5032830;28;20466;-65
2023/03/17 08:51:46;;;;;;;2.53;1.93;;;10.60;98.00;;;;;;5031816;28;20457;-66
2023/03/17 08:54:15;;;;;;;2.07;1.57;;;10.80;98.00;;;;;;5032540;28;20998;-67
2023/03/17 08:56:42;;;;;;;4.23;2.40;;;11.80;98.00;;;;;;5032817;28;20548;-66
2023/03/17 08:59:11;;;;;;;8.60;3.37;;;12.60;98.00;;;;;;5033803;28;20459;-66
2023/03/17 09:01:38;;;;;;;6.80;3.57;;;13.30;98.00;;;;;;5033280;28;20489;-66
2023/03/17 09:04:09;;;;;;;5.47;3.33;;;13.40;98.00;;;;;;5033779;28;20454;-66
2023/03/17 09:06:37;;;;;;;6.80;3.23;;;13.30;98.00;;;;;;5047040;28;20456;-68
2023/03/17 09:09:05;;;;;;;8.60;3.60;;;13.20;98.00;;;;;;5052386;28;20501;-67
2023/03/17 09:11:34;;;;;;;4.13;2.80;;;13.00;98.00;;;;;;5052292;28;20502;-66
2023/03/17 09:14:02;;;;;;;10.03;3.20;;;12.90;98.00;;;;;;5052200;28;20454;-68
2023/03/17 09:16:32;;;;;;;6.80;3.50;;;13.00;98.00;;;;;;5034627;28;20479;-67
2023/03/17 09:18:59;;;;;;;4.83;2.60;;;13.00;98.00;;;;;;5035145;28;20456;-66
2023/03/17 09:21:27;;;;;;;4.70;2.80;;;13.10;98.00;;;;;;5051955;28;20495;-66
2023/03/17 09:23:54;;;;;;;4.57;2.60;;;13.20;98.00;;;;;;5052037;28;20549;-66
2023/03/17 09:26:23;;;;;;;12.10;3.53;;;13.20;98.00;;;;;;5052005;28;20503;-66
2023/03/17 09:28:53;;;;;;;3.33;2.60;;;13.20;97.80;;;;;;5052068;28;20653;-66
2023/03/17 09:31:20;;;;;;;6.80;2.30;;;13.20;96.30;;;;;;5051970;28;20797;-67
2023/03/17 09:33:47;;;;;;;3.70;2.10;;;13.20;96.00;;;;;;5034158;28;20962;-68
2023/03/17 09:36:14;;;;;;;3.47;2.30;;;13.40;95.90;;;;;;5051927;28;20944;-66
2023/03/17 09:38:42;;;;;;;3.10;1.80;;;13.60;93.10;;;;;;5051671;28;20460;-67
2023/03/17 09:41:31;;;;;;;5.00;2.40;;;13.80;92.90;;;;;;5033919;28;20484;-67
2023/03/17 09:44:13;;;;;;;2.93;2.00;;;14.00;91.60;;;;;;5051991;28;20872;-67
2023/03/17 09:46:53;;;;;;;2.77;2.50;;;14.20;90.10;;;;;;5051947;28;20617;-67
2023/03/17 09:49:26;;;;;;;3.80;2.13;;;14.40;92.00;;;;;;5051952;28;20458;-68
2023/03/17 09:51:53;;;;;;;4.43;2.00;;;14.50;90.20;;;;;;5051692;28;20496;-67
2023/03/17 09:54:27;;;;;;;4.20;2.33;;;14.70;91.00;;;;;;5051978;28;20471;-67
2023/03/17 09:57:00;;;;;;;3.87;2.50;;;14.90;90.10;;;;;;5034486;28;20458;-66
2023/03/17 09:59:35;;;;;;;5.50;2.70;;;15.20;90.40;;;;;;5051909;28;20459;-66
2023/03/17 10:02:03;;;;;;;3.53;2.40;;;15.40;89.60;;;;;;5051652;28;20516;-67
2023/03/17 10:04:30;;;;;;;4.33;2.27;;;15.60;89.20;;;;;;5052046;28;20976;-67
2023/03/17 10:07:04;;;;;;;3.70;2.43;;;15.80;88.80;;;;;;5034173;28;20471;-66
2023/03/17 10:09:38;;;;;;;4.03;3.03;;;16.00;87.50;;;;;;5051574;28;20460;-66
2023/03/17 10:12:11;;;;;;;5.47;2.80;;;16.20;89.60;;;;;;5051751;28;20464;-68
2023/03/17 10:14:52;;;;;;;4.97;2.73;;;16.40;88.00;;;;;;5051485;28;20461;-66
2023/03/17 10:17:23;;;;;;;19.13;2.50;;;16.50;86.30;;;;;;5051615;28;20518;-66
2023/03/17 10:19:58;;;;;;;2.93;2.20;;;16.60;85.40;;;;;;5051394;28;20522;-66
2023/03/17 10:22:30;;;;;;;4.00;2.40;;;16.80;86.80;;;;;;5051395;28;20862;-68
2023/03/17 10:25:02;;;;;;;3.07;2.10;;;16.90;86.30;;;;;;5051539;28;20480;-67
2023/03/17 10:27:37;;;;;;;4.03;2.53;;;17.00;86.10;;;;;;5051377;28;20944;-67
2023/03/17 10:30:15;;;;;;;4.03;2.23;;;17.30;85.70;;;;;;5051369;28;20453;-67
2023/03/17 10:32:43;;;;;;;2.90;2.10;;;17.40;84.10;;;;;;5051275;28;20457;-68
2023/03/17 10:35:11;;;;;;;5.70;2.63;;;17.60;83.00;;;;;;5051373;28;20457;-67
2023/03/17 10:37:39;;;;;;;3.87;2.43;;;17.80;83.40;;;;;;5033539;28;20461;-66
2023/03/17 10:40:10;;;;;;;4.90;2.50;;;18.10;83.70;;;;;;5051493;28;20453;-68
2023/03/17 10:42:47;;;;;;;4.70;2.80;;;18.20;83.80;;;;;;5034193;28;20481;-66
2023/03/17 10:45:23;;;;;;;4.50;2.70;;;18.30;82.40;;;;;;5051421;28;20484;-68
2023/03/17 10:47:51;;;;;;;4.73;2.33;;;18.50;84.40;;;;;;5051303;28;20866;-67
2023/03/17 10:50:23;;;;;;;4.13;2.43;;;18.70;82.00;;;;;;5051275;28;20463;-66
2023/03/17 10:52:54;;;;;;;2.87;2.30;;;18.80;83.20;;;;;;5050972;28;20519;-65
2023/03/17 10:55:26;;;;;;;5.20;2.80;;;19.10;83.50;;;;;;5051241;28;20952;-65
2023/03/17 10:58:00;;;;;;;5.63;2.30;;;19.30;82.00;;;;;;5051107;28;20993;-66
2023/03/17 11:00:33;;;;;;;4.07;2.20;;;19.50;82.30;;;;;;5051350;28;20465;-66
2023/03/17 11:03:10;;;;;;;5.27;2.63;;;19.70;82.50;;;;;;5050836;28;20744;-64
2023/03/17 11:05:38;;;;;;;4.33;2.20;;;20.10;82.10;;;;;;5050634;28;20489;-67
2023/03/17 11:08:16;;;;;;;4.60;2.53;;;20.40;80.00;;;;;;5050603;28;21000;-67
2023/03/17 11:10:44;;;;;;;3.10;2.40;;;20.40;80.00;;;;;;4993630;28;20459;-67
2023/03/17 11:13:16;;;;;;;3.83;2.47;;;20.40;80.00;;;;;;5011257;28;20562;-66
2023/03/17 11:15:49;;;;;;;4.07;2.40;;;20.30;80.80;;;;;;5014954;28;20989;-66
2023/03/17 11:18:22;;;;;;;3.80;2.20;;;20.40;79.00;;;;;;5014924;28;20455;-67
2023/03/17 11:20:56;;;;;;;4.13;2.20;;;20.40;79.80;;;;;;5014505;28;20483;-67
2023/03/17 11:23:52;;;;;;;5.93;2.17;;;20.40;79.60;;;;;;5014839;28;20474;-66
2023/03/17 11:26:40;;;;;;;3.93;2.60;;;20.50;81.50;;;;;;4997289;28;20459;-67
2023/03/17 11:29:38;;;;;;;4.50;2.17;;;20.50;81.60;;;;;;5014821;28;20954;-66
2023/03/17 11:32:25;;;;;;;4.50;2.43;;;20.60;81.50;;;;;;5014580;28;20471;-66
2023/03/17 11:35:19;;;;;;;4.50;2.40;;;20.70;80.90;;;;;;5014364;28;20467;-67
2023/03/17 11:38:12;;;;;;;4.43;2.43;;;21.00;80.60;;;;;;5014436;28;20522;-66
2023/03/17 11:40:55;;;;;;;4.50;2.57;;;21.00;79.70;;;;;;5014243;28;20530;-67
2023/03/17 11:43:32;;;;;;;5.70;2.53;;;21.10;80.10;;;;;;5014625;28;20460;-68
2023/03/17 11:46:10;;;;;;;6.93;2.23;;;21.20;80.30;;;;;;5053090;28;20454;-66
2023/03/17 11:48:51;;;;;;;2.90;2.20;;;21.00;79.90;;;;;;5036604;28;20837;-66
2023/03/17 11:51:27;;;;;;;4.17;2.33;;;21.10;79.10;;;;;;5054052;28;20473;-67
2023/03/17 11:54:09;;;;;;;2.57;1.90;;;21.10;80.10;;;;;;5053680;28;20465;-67
2023/03/17 11:56:45;;;;;;;5.87;2.90;;;21.20;80.40;;;;;;5053988;28;20453;-68
2023/03/17 11:59:30;;;;;;;7.60;2.90;;;21.40;80.10;;;;;;5053966;28;20566;-66
2023/03/17 12:02:03;;;;;;;4.60;2.57;;;21.60;78.60;;;;;;5053627;28;20488;-66
2023/03/17 12:04:38;;;;;;;5.53;2.60;;;21.80;77.70;;;;;;5053517;28;20461;-67
2023/03/17 12:07:13;;;;;;;3.40;2.37;;;22.20;77.40;;;;;;5053547;28;20489;-66
2023/03/17 12:09:43;;;;;;;2.43;2.10;;;22.50;76.00;;;;;;5053462;28;20465;-67
2023/03/17 12:12:14;;;;;;;3.30;2.40;;;22.90;74.50;;;;;;5053632;28;20465;-68
2023/03/17 12:14:48;;;;;;;3.03;1.90;;;23.20;76.00;;;;;;5053289;28;20464;-66
2023/03/17 12:17:20;;;;;;;3.00;2.20;;;23.30;72.70;;;;;;5053538;28;20496;-66
2023/03/17 12:20:05;;;;;;;3.80;2.60;;;23.20;74.80;;;;;;5053318;28;20814;-66
2023/03/17 12:22:39;;;;;;;2.30;2.00;;;23.10;73.10;;;;;;5052883;28;20543;-64
2023/03/17 12:25:15;;;;;;;3.57;2.10;;;23.50;74.40;;;;;;5052291;28;20489;-65
2023/03/17 12:27:47;;;;;;;3.83;2.50;;;23.70;73.80;;;;;;5052771;28;20453;-66
2023/03/17 12:30:24;;;;;;;3.67;2.10;;;23.60;73.70;;;;;;5053280;28;20458;-64
2023/03/17 12:32:59;;;;;;;3.00;2.20;;;23.50;73.60;;;;;;5053110;28;20454;-65
2023/03/17 12:35:30;;;;;;;2.23;1.90;;;23.30;72.50;;;;;;5053048;28;20468;-65
2023/03/17 12:38:00;;;;;;;3.37;2.40;;;23.10;73.30;;;;;;5052869;28;20464;-66
2023/03/17 12:40:33;;;;;;;2.40;2.00;;;23.00;72.70;;;;;;5052889;28;20940;-65
2023/03/17 12:43:20;;;;;;;3.67;2.40;;;23.10;75.00;;;;;;5052824;28;20485;-67
2023/03/17 12:46:01;;;;;;;3.13;2.10;;;23.20;72.70;;;;;;5215505;22;20993;-66
2023/03/17 12:48:56;;;;;;;3.90;1.90;;;23.40;72.80;;;;;;5032327;28;20516;-66
2023/03/17 12:51:55;;;;;;;2.70;2.20;;;23.80;72.10;;;;;;5040904;28;20456;-68
2023/03/17 12:54:26;;;;;;;3.60;2.00;;;23.90;70.70;;;;;;5052718;28;20523;-67
2023/03/17 12:56:59;;;;;;;2.37;1.80;;;23.70;69.90;;;;;;5052790;28;20515;-68
2023/03/17 12:59:29;;;;;;;1.90;1.73;;;23.50;71.10;;;;;;5052747;28;20461;-68
2023/03/17 13:01:58;;;;;;;3.30;2.07;;;23.30;71.10;;;;;;5052236;28;20517;-67
2023/03/17 13:04:28;;;;;;;3.73;2.07;;;23.20;71.60;;;;;;5051720;28;20739;-67
2023/03/17 13:07:04;;;;;;;2.70;2.00;;;23.10;72.90;;;;;;5051351;28;20892;-67
2023/03/17 13:09:44;;;;;;;2.47;2.03;;;23.10;72.90;;;;;;5051561;28;20461;-68